createdAt,value
2022-07-30T00:00:42.793Z,46.31
2022-07-30T00:03:09.948Z,46.71
2022-07-30T00:05:37.066Z,46.62
2022-07-30T00:08:05.725Z,46.99
2022-07-30T00:10:32.904Z,46.84
2022-07-30T00:13:00.187Z,46.69
2022-07-30T00:15:27.403Z,46.96
2022-07-30T00:17:55.124Z,47.29
2022-07-30T00:20:22.564Z,47.44
2022-07-30T00:22:49.904Z,47.00
2022-07-30T00:25:19.604Z,47.36
2022-07-30T00:27:47.043Z,47.10
2022-07-30T00:30:14.646Z,47.52
2022-07-30T00:32:41.843Z,47.83
2022-07-30T00:35:10.078Z,47.35
2022-07-30T00:37:37.325Z,48.20
2022-07-30T00:40:05.785Z,47.41
2022-07-30T00:42:42.804Z,47.65
2022-07-30T00:45:11.505Z,47.35
2022-07-30T00:47:38.984Z,47.92
2022-07-30T00:50:09.310Z,47.95
2022-07-30T00:52:37.905Z,47.88
2022-07-30T00:55:07.715Z,48.16
2022-07-30T00:57:34.886Z,48.02
2022-07-30T01:00:05.126Z,48.03
2022-07-30T01:02:32.229Z,47.97
2022-07-30T01:04:59.384Z,48.09
2022-07-30T01:07:27.318Z,48.12
2022-07-30T01:09:54.566Z,48.27
2022-07-30T01:12:25.612Z,48.31
2022-07-30T01:14:55.706Z,48.34
2022-07-30T01:17:24.566Z,48.15
2022-07-30T01:19:56.825Z,48.20
2022-07-30T01:22:37.244Z,48.26
2022-07-30T01:25:14.243Z,48.35
2022-07-30T01:27:48.883Z,47.91
2022-07-30T01:30:21.288Z,48.03
2022-07-30T01:32:51.904Z,48.42
2022-07-30T01:35:23.187Z,50.19
2022-07-30T01:37:53.523Z,48.94
2022-07-30T01:40:22.725Z,47.65
2022-07-30T01:42:53.931Z,46.34
2022-07-30T01:45:23.825Z,45.81
2022-07-30T01:47:54.584Z,45.64
2022-07-30T01:50:23.403Z,44.61
2022-07-30T01:52:54.187Z,44.35
2022-07-30T01:55:32.486Z,44.00
2022-07-30T01:58:03.604Z,43.50
2022-07-30T02:00:36.783Z,43.42
2022-07-30T02:03:05.485Z,43.28
2022-07-30T02:05:36.364Z,43.38
2022-07-30T02:08:11.545Z,43.67
2022-07-30T02:10:45.583Z,43.18
2022-07-30T02:13:20.625Z,42.70
2022-07-30T02:15:56.860Z,42.98
2022-07-30T02:18:31.828Z,42.64
2022-07-30T02:21:07.519Z,42.13
2022-07-30T02:23:42.826Z,41.93
2022-07-30T02:26:19.185Z,41.48
2022-07-30T02:28:53.064Z,41.26
2022-07-30T02:31:26.503Z,41.56
2022-07-30T02:33:58.645Z,41.01
2022-07-30T02:36:27.810Z,41.14
2022-07-30T02:39:00.269Z,40.87
2022-07-30T02:41:32.404Z,40.67
2022-07-30T02:44:04.787Z,40.44
2022-07-30T02:46:33.547Z,40.26
2022-07-30T02:49:02.928Z,40.21
2022-07-30T02:51:33.439Z,39.83
2022-07-30T02:54:03.524Z,39.81
2022-07-30T02:56:33.662Z,40.16
2022-07-30T02:59:05.201Z,39.91
2022-07-30T03:01:35.112Z,39.36
2022-07-30T03:04:05.338Z,40.12
2022-07-30T03:06:34.381Z,40.03
2022-07-30T03:09:03.561Z,39.64
2022-07-30T03:11:33.240Z,39.23
2022-07-30T03:14:03.039Z,39.73
2022-07-30T03:16:37.005Z,39.38
2022-07-30T03:19:08.780Z,39.15
2022-07-30T03:21:39.341Z,39.04
2022-07-30T03:24:09.200Z,39.08
2022-07-30T03:26:39.580Z,39.18
2022-07-30T03:29:11.161Z,38.96
2022-07-30T03:31:41.646Z,39.01
2022-07-30T03:34:12.765Z,38.71
2022-07-30T03:36:41.742Z,38.78
2022-07-30T03:39:10.395Z,38.38
2022-07-30T03:41:39.179Z,37.82
2022-07-30T03:44:09.680Z,38.06
2022-07-30T03:46:38.361Z,37.71
2022-07-30T03:49:06.604Z,37.42
2022-07-30T03:51:36.941Z,37.21
2022-07-30T03:54:05.360Z,37.67
2022-07-30T03:56:34.542Z,37.26
2022-07-30T03:59:02.142Z,37.02
2022-07-30T04:01:31.156Z,36.96
2022-07-30T04:04:05.386Z,36.93
2022-07-30T04:06:32.881Z,37.09
2022-07-30T04:08:59.981Z,37.24
2022-07-30T04:11:40.940Z,37.24
2022-07-30T04:14:09.921Z,37.34
2022-07-30T04:16:46.308Z,37.46
2022-07-30T04:19:26.721Z,37.33
2022-07-30T04:21:57.101Z,37.48
2022-07-30T04:24:27.202Z,38.10
2022-07-30T04:26:55.763Z,37.97
2022-07-30T04:29:24.859Z,38.23
2022-07-30T04:31:54.662Z,38.36
2022-07-30T04:34:21.942Z,38.52
2022-07-30T04:36:49.501Z,38.77
2022-07-30T04:39:16.640Z,38.89
2022-07-30T04:41:49.618Z,39.28
2022-07-30T04:44:19.842Z,39.39
2022-07-30T04:46:48.265Z,39.36
2022-07-30T04:49:21.186Z,39.71
2022-07-30T04:51:53.140Z,39.80
2022-07-30T04:54:21.346Z,40.34
2022-07-30T04:57:01.004Z,40.36
2022-07-30T04:59:28.484Z,40.61
2022-07-30T05:01:58.824Z,40.43
2022-07-30T05:04:31.906Z,40.53
2022-07-30T05:07:01.605Z,40.86
2022-07-30T05:09:29.626Z,41.25
2022-07-30T05:11:57.992Z,41.08
2022-07-30T05:14:26.806Z,41.02
2022-07-30T05:16:54.746Z,41.21
2022-07-30T05:19:22.306Z,41.46
2022-07-30T05:21:50.884Z,41.22
2022-07-30T05:24:18.566Z,41.31
2022-07-30T05:26:45.745Z,41.45
2022-07-30T05:29:19.463Z,41.48
2022-07-30T05:31:47.906Z,41.35
2022-07-30T05:34:15.170Z,41.35
2022-07-30T05:36:42.287Z,41.48
2022-07-30T05:39:11.233Z,41.54
2022-07-30T05:41:38.325Z,41.15
2022-07-30T05:44:05.667Z,41.31
2022-07-30T05:46:32.844Z,41.13
2022-07-30T05:49:00.263Z,40.95
2022-07-30T05:51:27.481Z,40.61
2022-07-30T05:53:54.618Z,40.74
2022-07-30T05:56:23.222Z,40.74
2022-07-30T05:58:50.361Z,40.74
2022-07-30T06:01:17.539Z,40.72
2022-07-30T06:03:44.703Z,40.30
2022-07-30T06:06:11.849Z,40.42
2022-07-30T06:08:39.003Z,40.28
2022-07-30T06:11:06.143Z,40.48
2022-07-30T06:13:34.704Z,40.41
2022-07-30T06:16:02.153Z,39.94
2022-07-30T06:18:29.402Z,39.98
2022-07-30T06:20:56.844Z,39.84
2022-07-30T06:23:24.142Z,39.79
2022-07-30T06:25:51.621Z,39.96
2022-07-30T06:31:08.420Z,39.89
2022-07-30T06:33:35.602Z,39.68
2022-07-30T06:36:02.841Z,40.36
2022-07-30T06:38:30.903Z,40.08
2022-07-30T06:41:02.590Z,40.37
2022-07-30T06:43:32.143Z,40.56
2022-07-30T06:46:00.059Z,40.82
2022-07-30T06:48:30.771Z,41.02
2022-07-30T06:50:57.941Z,40.19
2022-07-30T06:53:25.081Z,39.83
2022-07-30T06:55:52.961Z,40.21
2022-07-30T06:58:25.642Z,39.02
2022-07-30T07:00:52.981Z,38.91
2022-07-30T07:03:20.061Z,38.02
2022-07-30T07:05:48.620Z,38.16
2022-07-30T07:08:15.843Z,36.95
2022-07-30T07:10:42.983Z,37.29
2022-07-30T07:13:10.141Z,37.01
2022-07-30T07:15:37.741Z,36.56
2022-07-30T07:18:05.846Z,36.45
2022-07-30T07:20:33.042Z,35.99
2022-07-30T07:23:06.587Z,35.99
2022-07-30T07:25:36.762Z,35.78
2022-07-30T07:28:10.930Z,35.30
2022-07-30T07:30:40.288Z,35.15
2022-07-30T07:33:07.526Z,34.81
2022-07-30T07:35:48.925Z,34.39
2022-07-30T07:38:18.712Z,35.67
2022-07-30T07:40:46.683Z,34.93
2022-07-30T07:43:14.402Z,35.57
2022-07-30T07:45:43.230Z,35.18
2022-07-30T07:48:10.542Z,35.42
2022-07-30T07:50:38.121Z,34.27
2022-07-30T07:53:05.503Z,34.55
2022-07-30T07:55:34.062Z,34.12
2022-07-30T07:58:01.529Z,34.11
2022-07-30T08:00:29.625Z,34.35
2022-07-30T08:02:56.784Z,34.55
2022-07-30T08:05:24.404Z,33.84
2022-07-30T08:07:51.542Z,33.82
2022-07-30T08:10:18.685Z,35.09
2022-07-30T08:12:47.202Z,34.11
2022-07-30T08:15:17.051Z,34.82
2022-07-30T08:17:47.602Z,32.31
2022-07-30T08:20:15.785Z,32.93
2022-07-30T08:22:43.440Z,33.16
2022-07-30T08:25:11.269Z,32.90
2022-07-30T08:27:50.824Z,32.25
2022-07-30T08:30:20.105Z,32.69
2022-07-30T08:32:47.242Z,32.00
2022-07-30T08:35:14.723Z,31.99
2022-07-30T08:37:41.880Z,31.99
2022-07-30T08:40:10.422Z,32.03
2022-07-30T08:42:38.644Z,32.66
2022-07-30T08:45:12.524Z,33.84
2022-07-30T08:47:44.443Z,31.82
2022-07-30T08:50:14.422Z,30.61
2022-07-30T08:52:44.703Z,28.96
2022-07-30T08:55:13.481Z,24.12
2022-07-30T08:57:41.420Z,27.02
2022-07-30T09:00:12.181Z,23.80
2022-07-30T09:02:39.261Z,24.10
2022-07-30T09:05:07.841Z,25.20
2022-07-30T09:07:36.029Z,23.13
2022-07-30T09:10:04.285Z,23.11
2022-07-30T09:12:40.364Z,22.56
2022-07-30T09:15:16.123Z,22.38
2022-07-30T09:17:52.125Z,24.32
2022-07-30T09:20:20.461Z,24.29
2022-07-30T09:22:51.522Z,24.71
2022-07-30T09:25:35.264Z,23.13
2022-07-30T09:28:03.587Z,21.71
2022-07-30T09:30:50.182Z,23.31
2022-07-30T09:33:32.741Z,23.86
2022-07-30T09:36:00.124Z,22.54
2022-07-30T09:38:27.702Z,22.99
2022-07-30T09:40:57.643Z,21.99
2022-07-30T09:43:28.049Z,23.36
2022-07-30T09:45:58.645Z,24.63
2022-07-30T09:48:28.345Z,23.48
2022-07-30T09:50:57.590Z,23.70
2022-07-30T09:53:25.380Z,24.03
2022-07-30T09:55:52.920Z,24.29
2022-07-30T09:58:27.448Z,25.84
2022-07-30T10:01:09.205Z,27.56
2022-07-30T10:03:42.609Z,26.91
2022-07-30T10:06:11.347Z,27.49
2022-07-30T10:08:41.523Z,27.72
2022-07-30T10:11:12.504Z,27.66
2022-07-30T10:13:45.163Z,28.48
2022-07-30T10:16:15.041Z,23.91
2022-07-30T10:18:43.722Z,23.94
2022-07-30T10:21:12.721Z,25.40
2022-07-30T10:23:45.050Z,25.41
2022-07-30T10:26:13.607Z,27.11
2022-07-30T10:28:45.959Z,28.50
2022-07-30T10:31:47.468Z,26.67
2022-07-30T10:34:04.380Z,27.09
2022-07-30T10:36:34.141Z,26.42
2022-07-30T10:39:02.083Z,26.95
2022-07-30T10:41:48.162Z,26.33
2022-07-30T10:44:55.942Z,26.21
2022-07-30T10:47:34.614Z,26.26
2022-07-30T10:50:10.610Z,27.07
2022-07-30T10:52:48.720Z,26.52
2022-07-30T10:55:17.202Z,24.27
2022-07-30T10:58:00.421Z,25.20
2022-07-30T11:00:29.099Z,21.66
2022-07-30T11:03:19.463Z,22.65
2022-07-30T11:05:52.182Z,20.84
2022-07-30T11:08:31.887Z,19.75
2022-07-30T11:11:19.244Z,20.02
2022-07-30T11:13:54.146Z,23.11
2022-07-30T11:16:23.166Z,23.19
2022-07-30T11:19:51.513Z,23.22
2022-07-30T11:22:24.721Z,24.24
2022-07-30T11:24:52.319Z,23.36
2022-07-30T11:27:41.277Z,22.34
2022-07-30T11:30:33.921Z,22.63
2022-07-30T11:33:22.980Z,22.97
2022-07-30T11:36:12.069Z,23.42
2022-07-30T11:38:53.958Z,23.17
2022-07-30T11:41:21.344Z,23.09
2022-07-30T11:43:48.465Z,24.04
2022-07-30T11:46:17.439Z,22.93
2022-07-30T11:48:58.651Z,21.99
2022-07-30T11:51:27.485Z,23.16
2022-07-30T11:54:02.520Z,23.17
2022-07-30T11:56:30.561Z,24.95
2022-07-30T11:59:05.606Z,26.62
2022-07-30T12:01:34.084Z,25.46
2022-07-30T12:04:04.884Z,24.26
2022-07-30T12:06:33.503Z,24.00
2022-07-30T12:09:00.826Z,22.85
2022-07-30T12:11:33.447Z,23.77
2022-07-30T12:14:02.355Z,22.83
2022-07-30T12:16:31.699Z,23.26
2022-07-30T12:19:03.082Z,22.97
2022-07-30T12:21:30.342Z,24.54
2022-07-30T12:24:01.619Z,24.14
2022-07-30T12:26:32.882Z,23.91
2022-07-30T12:29:04.328Z,23.99
2022-07-30T12:31:31.921Z,23.72
2022-07-30T12:33:59.410Z,22.37
2022-07-30T12:36:30.140Z,22.88
2022-07-30T12:39:00.746Z,22.06
2022-07-30T12:41:45.279Z,22.35
2022-07-30T12:44:34.760Z,20.99
2022-07-30T12:47:02.667Z,22.09
2022-07-30T12:49:36.878Z,23.11
2022-07-30T12:52:09.623Z,22.50
2022-07-30T12:54:40.632Z,22.64
2022-07-30T12:57:07.852Z,23.44
2022-07-30T12:59:35.121Z,22.53
2022-07-30T13:02:03.685Z,23.23
2022-07-30T13:04:31.044Z,22.87
2022-07-30T13:07:06.941Z,22.82
2022-07-30T13:09:34.900Z,23.11
2022-07-30T13:12:04.522Z,22.80
2022-07-30T13:14:31.763Z,23.77
2022-07-30T13:16:59.054Z,22.81
2022-07-30T13:19:27.202Z,23.07
2022-07-30T13:21:54.302Z,22.83
2022-07-30T13:24:21.675Z,23.58
2022-07-30T13:26:50.576Z,22.82
2022-07-30T13:29:19.523Z,23.13
2022-07-30T13:31:46.642Z,22.73
2022-07-30T13:34:13.841Z,23.40
2022-07-30T13:36:42.465Z,23.08
2022-07-30T13:39:09.618Z,23.26
2022-07-30T13:41:36.721Z,24.01
2022-07-30T13:44:04.602Z,23.72
2022-07-30T13:46:33.202Z,26.38
2022-07-30T13:49:00.437Z,23.32
2022-07-30T13:51:27.680Z,24.32
2022-07-30T13:53:55.001Z,25.36
2022-07-30T13:56:22.147Z,24.26
2022-07-30T13:58:50.302Z,22.23
2022-07-30T14:01:18.462Z,22.76
2022-07-30T14:03:50.064Z,22.35
2022-07-30T14:06:18.416Z,22.27
2022-07-30T14:08:45.776Z,22.35
2022-07-30T14:11:12.921Z,22.38
2022-07-30T14:13:40.121Z,21.46
2022-07-30T14:16:18.125Z,21.12
2022-07-30T14:18:55.902Z,21.44
2022-07-30T14:21:23.021Z,21.31
2022-07-30T14:23:50.121Z,20.43
2022-07-30T14:26:17.300Z,20.91
2022-07-30T14:28:44.442Z,21.20
2022-07-30T14:31:11.501Z,21.07
2022-07-30T14:33:38.642Z,20.18
2022-07-30T14:36:07.642Z,20.44
2022-07-30T14:38:34.764Z,20.36
2022-07-30T14:41:01.900Z,20.37
2022-07-30T14:43:29.100Z,20.39
2022-07-30T14:45:56.182Z,20.79
2022-07-30T14:48:23.259Z,20.26
2022-07-30T14:51:12.814Z,21.04
2022-07-30T14:53:38.961Z,20.71
2022-07-30T14:56:06.144Z,20.93
2022-07-30T14:58:33.260Z,21.04
2022-07-30T15:01:15.513Z,20.98
2022-07-30T15:03:44.441Z,20.81
2022-07-30T15:06:11.847Z,20.47
2022-07-30T15:08:40.480Z,21.15
2022-07-30T15:11:08.133Z,19.35
2022-07-30T15:13:36.920Z,19.52
2022-07-30T15:16:06.442Z,19.96
2022-07-30T15:18:33.666Z,20.04
2022-07-30T15:21:00.780Z,19.67
2022-07-30T15:23:27.990Z,19.34
2022-07-30T15:25:56.503Z,19.59
2022-07-30T15:28:23.640Z,19.46
2022-07-30T15:30:50.780Z,19.22
2022-07-30T15:33:17.904Z,18.76
2022-07-30T15:35:45.120Z,19.24
2022-07-30T15:38:12.181Z,19.23
2022-07-30T15:40:40.321Z,18.95
2022-07-30T15:43:10.175Z,18.90
2022-07-30T15:45:55.667Z,19.11
2022-07-30T15:48:26.981Z,18.94
2022-07-30T15:50:59.741Z,18.89
2022-07-30T15:53:26.861Z,18.78
2022-07-30T15:55:53.986Z,19.02
2022-07-30T15:58:22.542Z,19.09
2022-07-30T16:00:49.998Z,19.02
2022-07-30T16:03:17.253Z,18.86
2022-07-30T16:05:52.081Z,18.83
2022-07-30T16:08:20.204Z,19.12
2022-07-30T16:10:47.405Z,18.86
2022-07-30T16:13:14.565Z,19.09
2022-07-30T16:15:43.280Z,19.25
2022-07-30T16:18:10.441Z,19.50
2022-07-30T16:20:37.663Z,19.07
2022-07-30T16:23:08.037Z,19.32
2022-07-30T16:25:39.263Z,19.22
2022-07-30T16:28:06.429Z,18.97
2022-07-30T16:30:33.990Z,18.94
2022-07-30T16:33:03.181Z,20.53
2022-07-30T16:35:30.343Z,19.79
2022-07-30T16:37:57.505Z,19.73
2022-07-30T16:40:24.646Z,20.26
2022-07-30T16:42:51.981Z,20.41
2022-07-30T16:45:19.111Z,20.48
2022-07-30T16:47:46.201Z,20.47
2022-07-30T16:50:14.861Z,23.68
2022-07-30T16:52:41.961Z,20.45
2022-07-30T16:55:09.384Z,20.28
2022-07-30T16:57:36.561Z,21.68
2022-07-30T17:00:06.961Z,28.05
2022-07-30T17:02:34.119Z,27.70
2022-07-30T17:05:01.430Z,21.14
2022-07-30T17:07:29.940Z,20.84
2022-07-30T17:09:58.628Z,28.50
2022-07-30T17:12:27.132Z,23.89
2022-07-30T17:14:55.222Z,30.49
2022-07-30T17:17:22.302Z,21.59
2022-07-30T17:19:49.382Z,24.57
2022-07-30T17:22:16.463Z,24.97
2022-07-30T17:24:44.982Z,22.30
2022-07-30T17:27:12.161Z,28.77
2022-07-30T17:29:50.142Z,22.92
2022-07-30T17:32:18.714Z,22.02
2022-07-30T17:34:46.164Z,22.27
2022-07-30T17:37:13.283Z,27.77
2022-07-30T17:40:26.737Z,29.20
2022-07-30T17:42:29.420Z,27.50
2022-07-30T17:44:56.605Z,25.73
2022-07-30T17:47:24.301Z,23.29
2022-07-30T17:49:51.423Z,28.44
2022-07-30T17:52:20.451Z,26.46
2022-07-30T17:54:50.185Z,25.83
2022-07-30T17:57:17.842Z,30.48
2022-07-30T17:59:46.404Z,29.40
2022-07-30T18:02:13.722Z,30.39
2022-07-30T18:04:40.820Z,30.69
2022-07-30T18:07:07.981Z,28.17
2022-07-30T18:09:37.843Z,28.07
2022-07-30T18:12:08.237Z,26.87
2022-07-30T18:14:35.522Z,30.31
2022-07-30T18:17:04.460Z,30.23
2022-07-30T18:19:31.626Z,26.39
2022-07-30T18:21:58.780Z,29.97
2022-07-30T18:24:30.203Z,29.87
2022-07-30T18:26:57.564Z,24.84
2022-07-30T18:29:24.700Z,30.66
2022-07-30T18:31:51.802Z,29.61
2022-07-30T18:34:20.373Z,29.83
2022-07-30T18:36:47.501Z,29.15
2022-07-30T18:39:14.604Z,30.33
2022-07-30T18:41:41.751Z,28.21
2022-07-30T18:44:08.965Z,28.62
2022-07-30T18:46:36.084Z,29.89
2022-07-30T18:49:20.904Z,27.15
2022-07-30T18:51:51.903Z,27.73
2022-07-30T18:54:19.423Z,30.30
2022-07-30T18:56:46.544Z,28.93
2022-07-30T18:59:13.691Z,30.04
2022-07-30T19:01:40.802Z,29.47
2022-07-30T19:04:07.907Z,30.21
2022-07-30T19:06:35.042Z,30.02
2022-07-30T19:09:04.283Z,31.20
2022-07-30T19:11:31.484Z,30.81
2022-07-30T19:13:59.584Z,30.62
2022-07-30T19:16:26.781Z,30.90
2022-07-30T19:18:53.883Z,30.36
2022-07-30T19:21:21.061Z,29.46
2022-07-30T19:23:48.241Z,29.29
2022-07-30T19:26:18.421Z,29.21
2022-07-30T19:28:45.579Z,29.34
2022-07-30T19:31:13.166Z,29.09
2022-07-30T19:33:40.302Z,29.13
2022-07-30T19:36:07.662Z,28.90
2022-07-30T19:38:34.844Z,28.60
2022-07-30T19:41:01.902Z,28.31
2022-07-30T19:43:33.555Z,27.68
2022-07-30T19:46:00.881Z,28.10
2022-07-30T19:48:29.369Z,27.67
2022-07-30T19:50:59.331Z,28.05
2022-07-30T19:53:31.588Z,28.03
2022-07-30T19:56:02.245Z,28.08
2022-07-30T19:58:32.326Z,28.11
2022-07-30T20:01:00.192Z,26.89
2022-07-30T20:03:31.706Z,26.21
2022-07-30T20:05:59.912Z,27.62
2022-07-30T20:08:27.647Z,27.67
2022-07-30T20:10:57.932Z,27.60
2022-07-30T20:13:44.610Z,27.70
2022-07-30T20:16:14.965Z,27.06
2022-07-30T20:18:43.047Z,27.50
2022-07-30T20:21:15.006Z,26.91
2022-07-30T20:23:43.421Z,27.28
2022-07-30T20:26:12.655Z,27.14
2022-07-30T20:28:40.460Z,27.57
2022-07-30T20:31:07.682Z,27.28
2022-07-30T20:33:39.063Z,27.23
2022-07-30T20:36:09.884Z,27.76
2022-07-30T20:38:37.559Z,27.54
2022-07-30T20:41:10.268Z,27.53
2022-07-30T20:43:51.829Z,27.51
2022-07-30T20:46:19.902Z,27.32
2022-07-30T20:48:48.498Z,27.15
2022-07-30T20:51:15.643Z,27.23
2022-07-30T20:53:45.325Z,27.12
2022-07-30T20:56:13.434Z,27.28
2022-07-30T20:58:46.116Z,27.32
2022-07-30T21:01:17.465Z,27.29
2022-07-30T21:03:47.709Z,27.17
2022-07-30T21:06:17.488Z,27.29
2022-07-30T21:08:44.645Z,27.31
2022-07-30T21:11:12.800Z,27.39
2022-07-30T21:13:41.956Z,27.12
2022-07-30T21:16:15.404Z,27.16
2022-07-30T21:18:42.703Z,26.89
2022-07-30T21:21:30.438Z,26.82
2022-07-30T21:24:05.901Z,26.88
2022-07-30T21:26:39.481Z,26.91
2022-07-30T21:29:06.840Z,26.71
2022-07-30T21:34:26.081Z,27.06
2022-07-30T21:36:55.529Z,26.72
2022-07-30T21:39:29.179Z,27.25
2022-07-30T21:41:56.543Z,26.80
2022-07-30T21:44:23.827Z,26.74
2022-07-30T21:46:51.103Z,27.08
2022-07-30T21:49:18.319Z,27.03
2022-07-30T21:51:46.460Z,26.91
2022-07-30T21:54:28.482Z,26.93
2022-07-30T21:56:58.235Z,26.86
2022-07-30T21:59:25.772Z,27.06
2022-07-30T22:01:55.390Z,27.02
2022-07-30T22:04:22.541Z,26.97
2022-07-30T22:06:49.681Z,26.80
2022-07-30T22:09:26.571Z,27.01
2022-07-30T22:12:02.712Z,27.14
2022-07-30T22:14:37.589Z,26.94
2022-07-30T22:17:05.043Z,26.94
2022-07-30T22:19:32.402Z,26.63
2022-07-30T22:22:03.539Z,27.30
2022-07-30T22:24:47.979Z,27.33
2022-07-30T22:27:15.381Z,27.67
2022-07-30T22:29:43.499Z,27.76
2022-07-30T22:32:11.770Z,27.86
2022-07-30T22:34:39.466Z,28.24
2022-07-30T22:37:12.705Z,28.48
2022-07-30T22:39:50.574Z,28.69
2022-07-30T22:42:24.482Z,28.63
2022-07-30T22:44:55.362Z,28.68
2022-07-30T22:47:51.300Z,28.77
2022-07-30T22:50:10.866Z,28.97
2022-07-30T22:52:39.041Z,29.27
2022-07-30T22:55:09.000Z,32.50
2022-07-30T22:57:40.232Z,31.02
2022-07-30T23:00:11.859Z,30.12
2022-07-30T23:02:39.406Z,29.69
2022-07-30T23:05:07.641Z,28.97
2022-07-30T23:07:39.794Z,29.09
2022-07-30T23:12:31.606Z,26.76
2022-07-30T23:12:33.879Z,28.44
2022-07-30T23:12:58.484Z,28.43
2022-07-30T23:15:25.763Z,28.74
2022-07-30T23:17:52.980Z,28.24
2022-07-30T23:20:21.181Z,28.00
2022-07-30T23:22:49.678Z,28.43
2022-07-30T23:25:17.518Z,27.78
2022-07-30T23:27:45.080Z,28.09
2022-07-30T23:30:14.760Z,27.98
2022-07-30T23:32:41.901Z,28.28
2022-07-30T23:35:10.141Z,28.25
2022-07-30T23:37:48.620Z,28.50
2022-07-30T23:40:17.703Z,28.35
2022-07-30T23:42:44.940Z,28.25
2022-07-30T23:45:13.499Z,28.52
2022-07-30T23:48:00.763Z,28.19
2022-07-30T23:50:27.922Z,28.44
2022-07-30T23:52:55.080Z,27.81
2022-07-30T23:55:22.419Z,28.19
2022-07-30T23:57:49.572Z,28.44
